createdAt,value
2019-02-16T00:01:01.941Z,96261.06
2019-02-16T00:03:28.709Z,96267.14
2019-02-16T00:05:55.373Z,96262.73
2019-02-16T00:08:22.074Z,96263.98
2019-02-16T00:10:48.726Z,96260.83
2019-02-16T00:13:15.441Z,96264.91
2019-02-16T00:15:42.104Z,96266.87
2019-02-16T00:18:08.763Z,96265.77
2019-02-16T00:20:35.486Z,96268.17
2019-02-16T00:23:02.145Z,96261.22
2019-02-16T00:25:28.811Z,96268.83
2019-02-16T00:27:55.464Z,96268.41
2019-02-16T00:30:22.146Z,96262.38
2019-02-16T00:32:48.812Z,96262.36
2019-02-16T00:35:15.516Z,96261.36
2019-02-16T00:37:42.158Z,96262.84
2019-02-16T00:40:08.841Z,96258.06
2019-02-16T00:42:35.488Z,96256.80
2019-02-16T00:45:02.293Z,96256.91
2019-02-16T00:47:28.939Z,96252.63
2019-02-16T00:49:55.584Z,96257.57
2019-02-16T00:52:22.247Z,96251.34
2019-02-16T00:54:48.922Z,96254.50
2019-02-16T00:57:15.599Z,96245.92
2019-02-16T00:59:42.304Z,96255.03
2019-02-16T01:02:08.963Z,96245.30
2019-02-16T01:04:35.607Z,96240.49
2019-02-16T01:07:02.262Z,96241.11
2019-02-16T01:09:28.922Z,96234.64
2019-02-16T01:11:55.583Z,96237.08
2019-02-16T01:14:22.246Z,96238.73
2019-02-16T01:16:48.963Z,96233.83
2019-02-16T01:19:15.633Z,96233.78
2019-02-16T01:21:42.354Z,96230.13
2019-02-16T01:24:09.052Z,96225.34
2019-02-16T01:26:35.720Z,96235.70
2019-02-16T01:29:02.384Z,96231.88
2019-02-16T01:31:29.097Z,96235.80
2019-02-16T01:33:55.815Z,96229.27
2019-02-16T01:36:22.474Z,96234.95
2019-02-16T01:38:49.218Z,96227.73
2019-02-16T01:41:15.924Z,96225.09
2019-02-16T01:43:42.641Z,96218.02
2019-02-16T01:46:09.304Z,96218.63
2019-02-16T01:48:35.969Z,96209.52
2019-02-16T01:51:02.631Z,96206.50
2019-02-16T01:53:29.274Z,96214.70
2019-02-16T01:55:55.993Z,96218.34
2019-02-16T01:58:22.644Z,96216.23
2019-02-16T02:00:49.310Z,96215.98
2019-02-16T02:03:15.962Z,96219.88
2019-02-16T02:05:42.662Z,96219.54
2019-02-16T02:08:09.308Z,96214.06
2019-02-16T02:10:36.022Z,96219.64
2019-02-16T02:13:02.688Z,96222.04
2019-02-16T02:15:29.337Z,96222.04
2019-02-16T02:17:55.991Z,96223.05
2019-02-16T02:20:22.678Z,96223.05
2019-02-16T02:22:49.374Z,96219.12
2019-02-16T02:25:16.037Z,96221.66
2019-02-16T02:27:42.752Z,96219.01
2019-02-16T02:30:09.412Z,96227.73
2019-02-16T02:32:36.071Z,96224.58
2019-02-16T02:35:02.776Z,96220.27
2019-02-16T02:37:29.431Z,96226.98
2019-02-16T02:39:56.156Z,96230.90
2019-02-16T02:42:22.799Z,96233.30
2019-02-16T02:44:49.477Z,96231.16
2019-02-16T02:47:16.138Z,96225.84
2019-02-16T02:49:42.812Z,96230.38
2019-02-16T02:52:09.469Z,96230.38
2019-02-16T02:54:36.175Z,96223.43
2019-02-16T02:57:02.884Z,96224.06
2019-02-16T02:59:29.505Z,96221.66
2019-02-16T03:01:56.166Z,96227.12
2019-02-16T03:04:22.912Z,96225.97
2019-02-16T03:06:49.523Z,96225.97
2019-02-16T03:09:16.186Z,96229.27
2019-02-16T03:11:42.865Z,96231.00
2019-02-16T03:14:09.526Z,96223.53
2019-02-16T03:16:36.244Z,96228.13
2019-02-16T03:19:02.902Z,96238.88
2019-02-16T03:21:29.552Z,96237.72
2019-02-16T03:23:56.267Z,96237.47
2019-02-16T03:26:23.000Z,96240.89
2019-02-16T03:28:49.712Z,96242.53
2019-02-16T03:31:16.439Z,96238.49
2019-02-16T03:33:43.085Z,96232.06
2019-02-16T03:36:09.723Z,96230.01
2019-02-16T03:38:36.392Z,96234.56
2019-02-16T03:41:03.098Z,96231.77
2019-02-16T03:43:29.751Z,96231.39
2019-02-16T03:45:56.408Z,96230.00
2019-02-16T03:48:23.161Z,96227.61
2019-02-16T03:50:49.813Z,96227.36
2019-02-16T03:53:16.478Z,96219.78
2019-02-16T03:55:43.153Z,96221.41
2019-02-16T03:58:09.830Z,96217.62
2019-02-16T04:00:36.460Z,96227.60
2019-02-16T04:03:03.120Z,96223.67
2019-02-16T04:05:29.787Z,96222.80
2019-02-16T04:07:56.452Z,96214.70
2019-02-16T04:10:23.169Z,96211.81
2019-02-16T04:12:49.814Z,96204.33
2019-02-16T04:15:16.512Z,96209.77
2019-02-16T04:17:43.178Z,96209.14
2019-02-16T04:20:09.824Z,96204.34
2019-02-16T04:22:36.703Z,96200.79
2019-02-16T04:25:03.359Z,96198.88
2019-02-16T04:27:30.018Z,96199.02
2019-02-16T04:29:56.689Z,96198.88
2019-02-16T04:32:23.362Z,96199.27
2019-02-16T04:34:50.061Z,96202.32
2019-02-16T04:37:16.713Z,96198.78
2019-02-16T04:39:43.393Z,96202.80
2019-02-16T04:42:11.428Z,96206.25
2019-02-16T04:44:38.021Z,96204.44
2019-02-16T04:47:03.429Z,96206.11
2019-02-16T04:49:30.079Z,96212.92
2019-02-16T04:51:56.745Z,96214.02
2019-02-16T04:54:23.394Z,96223.17
2019-02-16T04:56:50.091Z,96226.44
2019-02-16T04:59:16.815Z,96229.84
2019-02-16T05:01:43.476Z,96232.62
2019-02-16T05:04:10.124Z,96234.63
2019-02-16T05:06:36.909Z,96236.89
2019-02-16T05:09:03.562Z,96236.26
2019-02-16T05:11:30.221Z,96237.52
2019-02-16T05:13:56.908Z,96247.39
2019-02-16T05:16:23.571Z,96250.69
2019-02-16T05:18:50.239Z,96255.73
2019-02-16T05:21:16.916Z,96260.28
2019-02-16T05:23:43.627Z,96255.11
2019-02-16T05:26:10.283Z,96260.61
2019-02-16T05:28:36.964Z,96263.91
2019-02-16T05:31:03.637Z,96261.13
2019-02-16T05:33:30.367Z,96264.36
2019-02-16T05:35:57.025Z,96273.47
2019-02-16T05:38:23.678Z,96273.20
2019-02-16T05:40:50.339Z,96278.61
2019-02-16T05:43:17.039Z,96273.27
2019-02-16T05:45:43.706Z,96271.97
2019-02-16T05:48:10.385Z,96275.13
2019-02-16T05:50:37.044Z,96278.05
2019-02-16T05:53:03.717Z,96274.80
2019-02-16T05:55:30.420Z,96283.63
2019-02-16T05:57:57.120Z,96277.27
2019-02-16T06:00:23.776Z,96278.58
2019-02-16T06:02:50.440Z,96277.17
2019-02-16T06:05:17.153Z,96286.51
2019-02-16T06:07:43.873Z,96281.31
2019-02-16T06:10:10.515Z,96275.28
2019-02-16T06:12:37.188Z,96269.75
2019-02-16T06:15:03.840Z,96255.66
2019-02-16T06:17:30.573Z,96260.52
2019-02-16T06:19:57.241Z,96263.55
2019-02-16T06:22:23.943Z,96263.81
2019-02-16T06:24:50.597Z,96267.40
2019-02-16T06:27:17.250Z,96270.81
2019-02-16T06:29:43.999Z,96271.57
2019-02-16T06:32:10.656Z,96279.19
2019-02-16T06:34:37.332Z,96274.25
2019-02-16T06:37:04.079Z,96274.63
2019-02-16T06:39:30.752Z,96281.97
2019-02-16T06:41:57.410Z,96282.73
2019-02-16T06:44:24.157Z,96288.44
2019-02-16T06:46:50.787Z,96291.12
2019-02-16T06:49:17.643Z,96296.83
2019-02-16T06:51:44.330Z,96294.91
2019-02-16T06:54:11.029Z,96291.77
2019-02-16T06:56:37.704Z,96294.81
2019-02-16T06:59:04.381Z,96304.95
2019-02-16T07:01:33.095Z,96306.98
2019-02-16T07:03:57.759Z,96309.63
2019-02-16T07:06:24.404Z,96302.67
2019-02-16T07:08:51.050Z,96302.78
2019-02-16T07:11:17.718Z,96299.61
2019-02-16T07:13:44.361Z,96291.77
2019-02-16T07:16:11.062Z,96298.75
2019-02-16T07:18:39.559Z,96303.93
2019-02-16T07:21:04.415Z,96308.50
2019-02-16T07:23:31.080Z,96307.36
2019-02-16T07:25:57.745Z,96312.44
2019-02-16T07:28:24.408Z,96313.45
2019-02-16T07:30:51.062Z,96316.87
2019-02-16T07:33:17.730Z,96321.16
2019-02-16T07:35:44.407Z,96325.10
2019-02-16T07:38:11.112Z,96322.93
2019-02-16T07:40:37.779Z,96327.13
2019-02-16T07:43:04.487Z,96337.91
2019-02-16T07:45:31.135Z,96337.77
2019-02-16T07:47:57.898Z,96331.41
2019-02-16T07:50:24.673Z,96326.98
2019-02-16T07:52:51.340Z,96318.87
2019-02-16T07:55:18.087Z,96319.77
2019-02-16T07:57:44.752Z,96312.55
2019-02-16T08:00:11.395Z,96313.94
2019-02-16T08:02:38.125Z,96311.01
2019-02-16T08:05:04.775Z,96304.81
2019-02-16T08:07:31.440Z,96307.86
2019-02-16T08:09:58.099Z,96299.51
2019-02-16T08:12:24.797Z,96293.80
2019-02-16T08:14:51.451Z,96296.56
2019-02-16T08:17:18.158Z,96298.72
2019-02-16T08:19:44.823Z,96294.05
2019-02-16T08:22:11.490Z,96290.09
2019-02-16T08:24:38.751Z,96280.09
2019-02-16T08:27:04.944Z,96282.77
2019-02-16T08:29:31.607Z,96283.51
2019-02-16T08:31:58.298Z,96287.45
2019-02-16T08:34:24.996Z,96277.55
2019-02-16T08:36:51.676Z,96279.86
2019-02-16T08:39:21.231Z,96288.08
2019-02-16T08:41:49.431Z,96280.73
2019-02-16T08:44:14.581Z,96292.26
2019-02-16T08:46:41.247Z,96283.27
2019-02-16T08:49:09.271Z,96287.56
2019-02-16T08:51:34.607Z,96285.92
2019-02-16T08:54:01.314Z,96294.28
2019-02-16T08:56:27.978Z,96297.69
2019-02-16T08:58:54.649Z,96293.76
2019-02-16T09:01:21.301Z,96291.11
2019-02-16T09:03:47.968Z,96289.97
2019-02-16T09:06:14.624Z,96281.50
2019-02-16T09:08:41.276Z,96282.89
2019-02-16T09:11:07.978Z,96275.55
2019-02-16T09:13:34.699Z,96270.59
2019-02-16T09:16:01.357Z,96278.96
2019-02-16T09:18:28.028Z,96275.27
2019-02-16T09:20:54.683Z,96271.22
2019-02-16T09:23:21.401Z,96271.50
2019-02-16T09:25:48.058Z,96272.51
2019-02-16T09:28:14.725Z,96266.80
2019-02-16T09:30:41.392Z,96266.03
2019-02-16T09:33:08.039Z,96259.71
2019-02-16T09:35:34.753Z,96258.17
2019-02-16T09:38:01.410Z,96261.34
2019-02-16T09:40:28.072Z,96266.56
2019-02-16T09:42:54.820Z,96261.50
2019-02-16T09:45:21.515Z,96264.78
2019-02-16T09:47:48.167Z,96266.94
2019-02-16T09:50:14.863Z,96261.74
2019-02-16T09:52:41.531Z,96264.64
2019-02-16T09:55:08.195Z,96269.33
2019-02-16T09:57:34.919Z,96256.94
2019-02-16T10:00:01.576Z,96254.52
2019-02-16T10:02:28.289Z,96249.46
2019-02-16T10:04:54.925Z,96246.78
2019-02-16T10:07:21.659Z,96247.44
2019-02-16T10:09:48.366Z,96239.44
2019-02-16T10:12:15.101Z,96231.97
2019-02-16T10:14:41.719Z,96225.88
2019-02-16T10:17:09.945Z,96231.83
2019-02-16T10:19:35.136Z,96229.16
2019-02-16T10:22:01.794Z,96223.99
2019-02-16T10:24:28.538Z,96223.72
2019-02-16T10:26:55.198Z,96224.73
2019-02-16T10:29:21.868Z,96224.37
2019-02-16T10:31:48.531Z,96224.25
2019-02-16T10:34:15.243Z,96224.88
2019-02-16T10:36:41.887Z,96223.62
2019-02-16T10:39:08.560Z,96212.32
2019-02-16T10:41:35.277Z,96213.45
2019-02-16T10:44:01.951Z,96209.67
2019-02-16T10:46:28.662Z,96204.86
2019-02-16T10:48:55.326Z,96204.34
2019-02-16T10:51:21.995Z,96198.66
2019-02-16T10:53:48.731Z,96198.03
2019-02-16T10:56:15.387Z,96189.15
2019-02-16T10:58:42.119Z,96176.88
2019-02-16T11:01:08.764Z,96182.56
2019-02-16T11:03:35.434Z,96174.98
2019-02-16T11:06:02.071Z,96173.58
2019-02-16T11:08:28.829Z,96167.48
2019-02-16T11:10:55.499Z,96165.21
2019-02-16T11:13:22.155Z,96163.67
2019-02-16T11:15:48.837Z,96159.39
2019-02-16T11:18:15.548Z,96149.77
2019-02-16T11:20:42.193Z,96156.33
2019-02-16T11:23:08.868Z,96155.31
2019-02-16T11:25:35.538Z,96149.00
2019-02-16T11:28:02.243Z,96146.97
2019-02-16T11:30:28.937Z,96141.52
2019-02-16T11:32:55.655Z,96146.06
2019-02-16T11:35:22.400Z,96141.27
2019-02-16T11:37:49.067Z,96134.69
2019-02-16T11:40:15.875Z,96141.50
2019-02-16T11:42:42.560Z,96142.78
2019-02-16T11:45:09.318Z,96135.82
2019-02-16T11:47:35.983Z,96141.25
2019-02-16T11:50:02.641Z,96127.33
2019-02-16T11:52:29.365Z,96131.27
2019-02-16T11:54:56.024Z,96125.17
2019-02-16T11:57:22.733Z,96129.72
2019-02-16T11:59:49.403Z,96125.05
2019-02-16T12:02:16.141Z,96117.81
2019-02-16T12:04:42.827Z,96123.77
2019-02-16T12:07:09.531Z,96120.84
2019-02-16T12:09:36.306Z,96122.11
2019-02-16T12:12:02.845Z,96112.59
2019-02-16T12:14:29.508Z,96117.06
2019-02-16T12:16:56.224Z,96114.89
2019-02-16T12:19:22.881Z,96113.50
2019-02-16T12:21:49.555Z,96109.70
2019-02-16T12:24:16.237Z,96107.14
2019-02-16T12:26:42.892Z,96115.41
2019-02-16T12:29:09.571Z,96112.98
2019-02-16T12:31:36.258Z,96101.84
2019-02-16T12:34:02.922Z,96105.64
2019-02-16T12:36:29.602Z,96105.39
2019-02-16T12:39:04.634Z,96100.30
2019-02-16T12:41:23.000Z,96092.83
2019-02-16T12:43:49.661Z,96095.35
2019-02-16T12:46:16.383Z,96094.48
2019-02-16T12:48:43.033Z,96092.58
2019-02-16T12:51:09.694Z,96080.95
2019-02-16T12:53:36.450Z,96086.89
2019-02-16T12:56:03.118Z,96088.38
2019-02-16T12:58:29.776Z,96081.80
2019-02-16T13:00:56.493Z,96076.97
2019-02-16T13:03:23.152Z,96074.09
2019-02-16T13:05:49.803Z,96079.28
2019-02-16T13:08:16.456Z,96072.30
2019-02-16T13:10:43.176Z,96070.55
2019-02-16T13:13:09.946Z,96074.08
2019-02-16T13:15:36.626Z,96078.14
2019-02-16T13:18:03.341Z,96075.70
2019-02-16T13:20:30.001Z,96063.83
2019-02-16T13:22:56.664Z,96069.02
2019-02-16T13:25:24.665Z,96074.45
2019-02-16T13:27:49.999Z,96072.31
2019-02-16T13:30:16.652Z,96067.13
2019-02-16T13:32:43.319Z,96064.97
2019-02-16T13:35:10.046Z,96064.60
2019-02-16T13:37:36.740Z,96061.90
2019-02-16T13:40:03.455Z,96064.59
2019-02-16T13:42:30.108Z,96066.72
2019-02-16T13:44:56.760Z,96061.65
2019-02-16T13:47:23.472Z,96057.87
2019-02-16T13:49:50.151Z,96058.77
2019-02-16T13:52:16.858Z,96055.58
2019-02-16T13:54:43.520Z,96051.36
2019-02-16T13:57:10.256Z,96054.08
2019-02-16T13:59:36.920Z,96059.24
2019-02-16T14:02:03.738Z,96049.59
2019-02-16T14:04:30.386Z,96046.41
2019-02-16T14:06:57.048Z,96041.31
2019-02-16T14:09:23.720Z,96043.58
2019-02-16T14:11:50.443Z,96048.78
2019-02-16T14:14:17.141Z,96053.95
2019-02-16T14:16:43.825Z,96048.62
2019-02-16T14:19:10.484Z,96049.03
2019-02-16T14:21:37.191Z,96047.86
2019-02-16T14:24:03.853Z,96052.06
2019-02-16T14:26:30.532Z,96049.66
2019-02-16T14:28:57.194Z,96051.69
2019-02-16T14:31:28.476Z,96046.37
2019-02-16T14:33:50.521Z,96049.28
2019-02-16T14:36:17.223Z,96042.17
2019-02-16T14:38:43.884Z,96032.20
2019-02-16T14:41:10.541Z,96035.61
2019-02-16T14:43:37.217Z,96038.77
2019-02-16T14:46:03.872Z,96031.95
2019-02-16T14:48:30.574Z,96034.88
2019-02-16T14:50:57.226Z,96033.70
2019-02-16T14:53:23.906Z,96029.69
2019-02-16T14:55:54.173Z,96024.33
2019-02-16T14:58:17.324Z,96034.09
2019-02-16T15:00:43.980Z,96026.64
2019-02-16T15:03:10.634Z,96029.69
2019-02-16T15:05:37.380Z,96026.89
2019-02-16T15:08:04.043Z,96026.27
2019-02-16T15:10:30.720Z,96031.83
2019-02-16T15:12:57.390Z,96029.44
2019-02-16T15:15:24.068Z,96028.92
2019-02-16T15:17:50.792Z,96022.97
2019-02-16T15:20:17.462Z,96031.58
2019-02-16T15:22:44.175Z,96029.42
2019-02-16T15:25:10.936Z,96023.23
2019-02-16T15:27:37.517Z,96037.16
2019-02-16T15:30:04.239Z,96036.41
2019-02-16T15:32:30.928Z,96026.28
2019-02-16T15:34:57.593Z,96029.45
2019-02-16T15:37:24.302Z,96035.14
2019-02-16T15:39:50.934Z,96028.82
2019-02-16T15:42:17.611Z,96034.29
2019-02-16T15:44:44.333Z,96033.15
2019-02-16T15:47:11.000Z,96035.41
2019-02-16T15:49:37.684Z,96041.99
2019-02-16T15:52:04.359Z,96036.33
2019-02-16T15:54:31.099Z,96042.90
2019-02-16T15:56:57.769Z,96045.96
2019-02-16T15:59:24.470Z,96044.56
2019-02-16T16:01:51.182Z,96047.59
2019-02-16T16:04:17.955Z,96044.69
2019-02-16T16:06:44.614Z,96046.59
2019-02-16T16:09:11.264Z,96052.41
2019-02-16T16:11:37.986Z,96059.77
2019-02-16T16:14:06.516Z,96063.95
2019-02-16T16:16:31.483Z,96050.64
2019-02-16T16:18:58.097Z,96065.72
2019-02-16T16:21:24.774Z,96062.80
2019-02-16T16:23:51.480Z,96062.05
2019-02-16T16:26:19.601Z,96063.83
2019-02-16T16:28:44.884Z,96066.48
2019-02-16T16:31:11.681Z,96071.55
2019-02-16T16:33:38.189Z,96078.51
2019-02-16T16:36:04.915Z,96082.05
2019-02-16T16:38:31.563Z,96085.98
2019-02-16T16:40:58.218Z,96087.77
2019-02-16T16:43:24.883Z,96087.13
2019-02-16T16:45:51.527Z,96086.23
2019-02-16T16:48:18.204Z,96091.05
2019-02-16T16:50:44.854Z,96096.48
2019-02-16T16:53:11.584Z,96095.33
2019-02-16T16:55:38.354Z,96100.02
2019-02-16T16:58:05.001Z,96101.30
2019-02-16T17:00:31.664Z,96103.84
2019-02-16T17:02:58.328Z,96105.09
2019-02-16T17:05:25.143Z,96104.71
2019-02-16T17:07:51.851Z,96108.02
2019-02-16T17:10:18.518Z,96109.52
2019-02-16T17:12:45.162Z,96109.66
2019-02-16T17:15:11.827Z,96118.02
2019-02-16T17:17:38.547Z,96121.05
2019-02-16T17:20:05.285Z,96120.43
2019-02-16T17:22:31.928Z,96118.39
2019-02-16T17:24:58.582Z,96118.91
2019-02-16T17:27:25.249Z,96121.93
2019-02-16T17:29:51.960Z,96119.41
2019-02-16T17:32:18.614Z,96116.51
2019-02-16T17:34:45.278Z,96117.14
2019-02-16T17:37:11.974Z,96120.42
2019-02-16T17:39:38.622Z,96122.58
2019-02-16T17:42:05.282Z,96124.72
2019-02-16T17:44:31.932Z,96120.94
2019-02-16T17:46:58.612Z,96122.58
2019-02-16T17:49:25.264Z,96121.44
2019-02-16T17:51:53.291Z,96115.48
2019-02-16T17:54:18.580Z,96122.33
2019-02-16T17:56:46.995Z,96122.96
2019-02-16T17:59:11.901Z,96120.42
2019-02-16T18:01:38.574Z,96124.60
2019-02-16T18:04:05.271Z,96120.28
2019-02-16T18:06:31.916Z,96124.09
2019-02-16T18:08:58.577Z,96124.84
2019-02-16T18:11:25.254Z,96131.66
2019-02-16T18:13:51.955Z,96133.70
2019-02-16T18:16:18.734Z,96135.08
2019-02-16T18:18:45.400Z,96135.59
2019-02-16T18:21:12.040Z,96131.55
2019-02-16T18:23:38.842Z,96134.83
2019-02-16T18:26:05.552Z,96135.59
2019-02-16T18:28:32.222Z,96141.80
2019-02-16T18:30:58.884Z,96142.80
2019-02-16T18:33:25.595Z,96139.11
2019-02-16T18:35:52.317Z,96142.67
2019-02-16T18:38:19.078Z,96137.63
2019-02-16T18:40:45.694Z,96131.41
2019-02-16T18:43:13.747Z,96137.63
2019-02-16T18:45:39.053Z,96139.89
2019-02-16T18:48:05.779Z,96138.61
2019-02-16T18:50:32.446Z,96139.13
2019-02-16T18:52:59.167Z,96134.82
2019-02-16T18:55:25.823Z,96134.81
2019-02-16T18:57:52.484Z,96135.96
2019-02-16T19:00:19.191Z,96132.79
2019-02-16T19:02:45.840Z,96139.13
2019-02-16T19:05:12.479Z,96140.52
2019-02-16T19:07:39.238Z,96136.73
2019-02-16T19:10:05.977Z,96137.08
2019-02-16T19:12:32.630Z,96138.86
2019-02-16T19:14:59.342Z,96127.34
2019-02-16T19:17:26.004Z,96131.03
2019-02-16T19:19:52.701Z,96132.03
2019-02-16T19:22:19.413Z,96135.58
2019-02-16T19:24:46.073Z,96133.05
2019-02-16T19:27:16.693Z,96131.41
2019-02-16T19:29:39.385Z,96143.80
2019-02-16T19:32:06.041Z,96146.72
2019-02-16T19:34:32.748Z,96148.74
2019-02-16T19:36:59.396Z,96150.76
2019-02-16T19:39:26.059Z,96154.42
2019-02-16T19:41:52.761Z,96156.96
2019-02-16T19:44:19.465Z,96160.88
2019-02-16T19:46:48.801Z,96156.58
2019-02-16T19:49:15.517Z,96159.36
2019-02-16T19:51:42.179Z,96157.09
2019-02-16T19:54:08.844Z,96153.94
2019-02-16T19:56:35.519Z,96154.95
2019-02-16T19:59:02.315Z,96157.70
2019-02-16T20:01:28.972Z,96158.84
2019-02-16T20:03:55.651Z,96153.27
2019-02-16T20:06:22.359Z,96158.08
2019-02-16T20:08:49.027Z,96155.57
2019-02-16T20:11:15.688Z,96157.59
2019-02-16T20:13:43.941Z,96158.60
2019-02-16T20:16:09.053Z,96156.07
2019-02-16T20:18:35.704Z,96157.95
2019-02-16T20:21:02.397Z,96165.91
2019-02-16T20:23:29.070Z,96168.59
2019-02-16T20:25:55.721Z,96170.86
2019-02-16T20:28:22.450Z,96171.62
2019-02-16T20:30:49.124Z,96175.55
2019-02-16T20:33:15.845Z,96171.38
2019-02-16T20:35:42.495Z,96168.56
2019-02-16T20:38:09.166Z,96178.06
2019-02-16T20:40:35.874Z,96177.54
2019-02-16T20:43:02.587Z,96180.98
2019-02-16T20:45:29.252Z,96182.48
2019-02-16T20:47:55.903Z,96174.37
2019-02-16T20:50:22.674Z,96175.91
2019-02-16T20:52:49.254Z,96178.17
2019-02-16T20:55:15.974Z,96174.52
2019-02-16T20:57:47.702Z,96178.03
2019-02-16T21:00:09.322Z,96174.23
2019-02-16T21:02:36.013Z,96174.23
2019-02-16T21:05:02.735Z,96172.70
2019-02-16T21:07:29.431Z,96180.56
2019-02-16T21:09:56.168Z,96171.31
2019-02-16T21:12:22.854Z,96175.38
2019-02-16T21:14:49.557Z,96166.63
2019-02-16T21:17:16.249Z,96169.68
2019-02-16T21:19:42.989Z,96169.41
2019-02-16T21:22:09.655Z,96171.42
2019-02-16T21:24:36.348Z,96171.94
2019-02-16T21:27:02.994Z,96169.16
2019-02-16T21:29:29.712Z,96167.00
2019-02-16T21:31:56.487Z,96169.92
2019-02-16T21:34:23.090Z,96169.64
2019-02-16T21:36:49.740Z,96168.78
2019-02-16T21:39:16.486Z,96169.27
2019-02-16T21:41:43.203Z,96168.11
2019-02-16T21:44:13.801Z,96170.13
2019-02-16T21:46:39.079Z,96166.86
2019-02-16T21:49:05.800Z,96167.11
2019-02-16T21:51:32.490Z,96163.80
2019-02-16T21:53:59.138Z,96159.06
2019-02-16T21:56:25.790Z,96161.27
2019-02-16T21:58:52.467Z,96164.31
2019-02-16T22:01:19.273Z,96164.16
2019-02-16T22:03:45.915Z,96163.78
2019-02-16T22:06:12.579Z,96165.09
2019-02-16T22:08:39.234Z,96161.88
2019-02-16T22:11:05.893Z,96160.36
2019-02-16T22:13:32.597Z,96162.33
2019-02-16T22:15:59.261Z,96159.79
2019-02-16T22:18:25.914Z,96163.86
2019-02-16T22:20:52.630Z,96159.55
2019-02-16T22:23:19.246Z,96163.58
2019-02-16T22:25:45.921Z,96160.22
2019-02-16T22:28:18.597Z,96158.69
2019-02-16T22:30:39.297Z,96164.50
2019-02-16T22:33:05.973Z,96157.81
2019-02-16T22:35:32.618Z,96157.58
2019-02-16T22:37:59.329Z,96152.64
2019-02-16T22:40:25.990Z,96152.78
2019-02-16T22:42:52.706Z,96153.89
2019-02-16T22:45:19.367Z,96152.19
2019-02-16T22:47:46.074Z,96152.19
2019-02-16T22:50:12.805Z,96155.80
2019-02-16T22:52:39.454Z,96150.91
2019-02-16T22:55:06.115Z,96157.13
2019-02-16T22:57:32.794Z,96153.03
2019-02-16T22:59:59.453Z,96156.36
2019-02-16T23:02:26.135Z,96151.01
2019-02-16T23:04:52.935Z,96156.05
2019-02-16T23:07:19.585Z,96150.38
2019-02-16T23:09:46.287Z,96154.97
2019-02-16T23:12:12.942Z,96150.63
2019-02-16T23:14:39.644Z,96149.48
2019-02-16T23:17:06.298Z,96146.21
2019-02-16T23:19:32.952Z,96142.39
2019-02-16T23:21:59.603Z,96141.58
2019-02-16T23:24:26.340Z,96144.30
2019-02-16T23:26:52.982Z,96141.91
2019-02-16T23:29:19.636Z,96143.92
2019-02-16T23:31:46.291Z,96145.83
2019-02-16T23:34:12.940Z,96139.88
2019-02-16T23:36:39.581Z,96143.92
2019-02-16T23:39:06.249Z,96141.14
2019-02-16T23:41:32.924Z,96135.57
2019-02-16T23:43:59.612Z,96135.05
2019-02-16T23:46:26.258Z,96137.73
2019-02-16T23:48:52.913Z,96144.22
2019-02-16T23:51:19.592Z,96144.30
2019-02-16T23:53:46.254Z,96141.38
2019-02-16T23:56:15.898Z,96143.78
2019-02-16T23:58:48.959Z,96140.75
